WEATHER DATA

YESTERDAY
Time Temp. Dewp. Hum. Wind dir Wind speed Wind gust Bar.
00:09 20.9 12.6 59 0 0 1008.6
00:29 20.7 12.4 59 0 0 1008.7
00:38 20.7 12.4 59 0 0 1008.6
00:49 20.6 12.3 59 0 0 1008.6
00:59 20.4 12.1 59 0 0 1008.5
01:09 20.3 12.3 60 0 0 1008.5
01:20 20.3 12.3 60 0 0 1008.5
01:29 20.3 12.3 60 0 0 1008.5
01:39 20.3 12.3 60 0 0 1008.5
01:49 20.3 12.3 60 0 0 1008.6
02:00 20.4 12.4 60 0 0 1008.6
02:09 20.6 12.6 60 0 0 1008.6
02:19 20.7 12.7 60 0 0 1008.6
02:30 20.9 12.9 60 0 0 1008.5
02:40 20.9 13.1 61 0 0 1008.5
02:50 20.9 13.1 61 0 0 1008.6
02:59 21 13.2 61 0 0 1008.6
03:10 21 13.2 61 0 0 1008.7
03:20 21 13.2 61 0 0 1008.7
03:30 21 13.2 61 0 0 1008.7
03:40 21 13.2 61 0 0 1008.8
03:50 20.9 13.1 61 0 0 1008.8
04:00 20.9 13.1 61 0 0 1008.9
04:10 20.8 13 61 0 0 1009.2
04:20 20.7 12.9 61 0 0 1009.4
04:30 20.6 12.8 61 0 0 1009.5
04:40 20.6 13.1 62 0 0 1009.7
04:51 20.5 13 62 0 0 1009.8
05:01 20.4 12.9 62 0 0 1009.9
05:10 20.3 12.8 62 0 0 1010
05:20 20.2 12.7 62 0 0 1010.2
05:31 20 12.5 62 0 0 1010.2
05:41 19.8 12.3 62 0 0 1010.2
05:50 19.6 12.1 62 0 0 1010.3
06:01 19.5 12 62 0 0 1010.2
06:11 19.5 12 62 0 0 1010.1
06:21 19.5 12 62 0 0 1010.2
06:31 19.6 12.1 62 0 0 1010.3
06:41 19.6 12.1 62 0 0 1010.2
06:51 19.7 12.2 62 0 0 1010.4
07:01 19.6 12.4 63 0 0 1010.4
07:12 19.7 12.5 63 0 0 1010.4
07:21 19.6 12.4 63 0 0 1010.4
07:31 19.6 12.4 63 0 0 1010.5
07:41 19.6 12.4 63 0 0 1010.7
07:52 19.6 12.4 63 0 0 1010.8
08:02 19.7 12.5 63 0 0 1010.8
08:11 19.8 12.6 63 0 0 1011
08:22 19.8 12.6 63 0 0 1011.2
08:32 19.7 12.5 63 0 0 1011.4
08:42 19.8 12.6 63 0 0 1011.8
08:52 19.7 12.5 63 0 0 1011.8
09:02 19.7 12.5 63 0 0 1012
09:12 19.7 12.5 63 0 0 1012.1
09:22 19.6 12.4 63 0 0 1012
09:33 19.8 12.6 63 0 0 1012.1
09:42 19.8 12.8 64 0 0 1012.1
09:52 19.9 12.9 64 0 0 1012.1
10:02 20.2 13.2 64 0 0 1012.2
10:13 20.4 13.4 64 0 0 1012.2
10:22 20.4 13.4 64 0 0 1012.2
10:32 20.7 13.7 64 0 0 1012.2
10:43 21.1 14 64 0 0 1012.1
10:53 21.7 14.6 64 0 0 1012.2
11:03 22.2 15.1 64 0 0 1012.2
11:13 22.9 15.7 64 0 0 1012.4
11:23 23.6 16.4 64 0 0 1012.5
11:33 23.7 16.5 64 0 0 1012.5
11:43 24 16.8 64 0 0 1012.5
11:53 24.4 17.2 64 0 0 1012.5
12:03 24.7 17.4 64 0 0 1012.7
12:13 25.2 17.9 64 0 0 1012.5
12:23 25.3 18 64 0 0 1012.8
12:34 25.5 17.9 63 0 0 1012.7
12:43 25.7 18.1 63 0 0 1012.7
12:53 26 18.4 63 0 0 1012.7
13:04 26 18.4 63 0 0 1012.7
13:14 25.7 18.1 63 0 0 1012.7
13:24 25.9 18.3 63 0 0 1012.8
13:33 26.1 18.5 63 0 0 1012.7
13:44 26.4 18.8 63 0 0 1012.5
13:54 26.3 18.7 63 0 0 1012.5
14:04 26 18.2 62 0 0 1012.7
14:14 26 18.2 62 0 0 1012.4
14:24 26.1 18.3 62 0 0 1012.4
14:34 26.1 18.3 62 0 0 1012.3
14:44 26 18.2 62 0 0 1012.3
14:55 25.9 18.1 62 0 0 1012.3
15:04 26 18.2 62 0 0 1012.1
15:14 26.2 18.1 61 0 0 1012.2
15:25 26.2 18.1 61 0 0 1012.1
15:54 26.9 18.7 61 0 0 1012
16:05 27.4 19.2 61 0 0 1011.9
16:15 27.2 18.8 60 0 0 1012.1
16:25 26.8 18.4 60 0 0 1012.1
16:35 26.5 18.1 60 0 0 1012
16:55 26.7 18.3 60 0 0 1012
17:05 27 18.6 60 0 0 1011.9
17:15 27.1 18.7 60 0 0 1011.9
17:25 27.6 18.9 59 0 0 1011.9
17:35 27.3 18.6 59 0 0 1011.9
17:46 27.1 18.4 59 0 0 1011.9
17:56 26.9 18.2 59 0 0 1011.9
18:05 26.8 18.1 59 0 0 1011.9
18:15 26.7 17.8 58 0 0 1011.8
18:26 26.6 17.7 58 0 0 1011.9
18:36 26.4 17.5 58 0 0 1012
18:45 26.1 17.2 58 0 0 1012.1
18:56 25.7 16.8 58 0 0 1012.2
19:06 25.3 16.4 58 0 0 1012.3
19:16 25.1 16 57 0 0 1012.5
19:26 24.9 15.8 57 0 0 1012.5
19:36 24.6 15.5 57 0 0 1012.7
19:46 24 15 57 0 0 1012.8
19:56 23.5 14.5 57 0 0 1012.8
20:07 22.9 13.9 57 0 0 1012.9
20:16 22.2 13.3 57 0 0 1013
20:26 21.7 12.8 57 0 0 1013.1
20:36 21.2 12.4 57 0 0 1013.2
20:47 20.6 11.8 57 0 0 1013.4
20:57 20.1 11.3 57 0 0 1013.7
21:06 19.6 11.1 58 0 0 1013.7
21:17 19.2 10.7 58 0 0 1014
21:27 18.7 10.3 58 0 0 1014.2
21:37 18.4 10 58 0 0 1014.3
21:47 18.1 9.7 58 0 0 1014.5
21:57 18 9.6 58 0 0 1014.4
22:07 17.7 9.3 58 0 0 1014.6
22:17 17.6 9.2 58 0 0 1014.7
22:27 17.4 9.3 59 0 0 1014.6
22:37 17.2 9.1 59 0 0 1014.6
22:47 17.1 9 59 0 0 1014.7
22:57 17 8.9 59 0 0 1014.7
23:08 16.9 8.8 59 0 0 1014.7
23:17 16.8 8.8 59 0 0 1014.7
23:27 16.7 8.7 59 0 0 1014.8
23:38 16.5 8.5 59 0 0 1014.8
23:48 16.4 8.4 59 0 0 1014.8
23:57 16.3 8.5 60 0 0 1014.8

DAY STATISTIC

2020-07-03
TEMPERATURE
AVERAGE
22.0
HIGH
27.6
17:25
LOW
16.3
23:57
PRESSURE
AVERAGE
1011.6
HIGH
1014.8
23:27
LOW
1008.5
00:59
DEWPOINT
AVERAGE
14.1
HIGH
19.2
16:05
LOW
8.4
23:48
HUMIDITY
AVERAGE
61
HIGH
64
09:42
LOW
57
19:16
WIND SPEED
AVERAGE
0.0
HIGH
0.0
23:20
WIND GUST
AVERAGE
0.0
HIGH
0.0
23:20
WIND DIRECTION
PREVAILING
%
TEMPERATURE (°C)
LOW
16.3
HIGH
27.6
AVERAGE
22.0
PRESSURE (hpa)
LOW
1008.5
HIGH
1014.8
AVERAGE
1011.6
DEVICE